EIKN/NOC METAR and TAF weather

Enter ICAO airport designator
Station Type Date Time Source
EIKN METAR 2020/09/20 11:00 UTC NOAA

EIKN 201100Z 08008KT 050V110 9999 FEW007 SCT011 11/09 Q1023 NOSIG


Station Type Date Time Source
EIKN Decoded METAR 2020/09/20 11:00 UTC NOAA

Connaught, Ireland (EIKN) 53-54-37N 008-49-05W
Sep 20, 2020 - 07:00 AM EDT / 2020.09.20 1100 UTC
Wind: from the E (080 degrees) at 9 MPH (8 KT) (direction variable):0
Visibility: greater than 7 mile(s):0
Sky conditions: partly cloudy
Temperature: 51 F (11 C)
Dew Point: 48 F (9 C)
Relative Humidity: 87%
Pressure (altimeter): 30.21 in. Hg (1023 hPa)
ob: EIKN 201100Z 08008KT 050V110 9999 FEW007 SCT011 11/09 Q1023 NOSIG
cycle: 11

Station Type Date Time Source
EIKN TAF 2020/09/20 12:11 UTC NOAA

TAF EIKN 201100Z 2012/2112 07008KT 9999 FEW008 SCT020
BECMG 2022/2024 3000 BR BKN004
TEMPO 2100/2106 0500 FG BKN001
BECMG 2109/2111 9999 NSW FEW001

Example: see airport list